Time;durP1;ratioP1;P1;durP2;ratioP2;P2;SDS_P1;SDS_P2;PMS_P1;PMS_P2;Temp;Humidity;BMP_temperature;BMP_pressure;BME280_temperature;BME280_humidity;BME280_pressure;Samples;Min_cycle;Max_cycle;Signal;HPM_P1;HPM_P2
2022/04/21 00:03:51;;;;;;;9.55;4.30;;;;;;;;;;10406282;28;20103;-71
2022/04/21 00:08:54;;;;;;;9.98;4.20;;;;;;;;;;10388927;28;20029;-71
2022/04/21 00:13:59;;;;;;;14.32;4.55;;;;;;;;;;10393766;28;20482;-69
2022/04/21 00:19:02;;;;;;;12.48;4.28;;;;;;;;;;10405005;28;20040;-69
2022/04/21 00:24:06;;;;;;;9.48;4.05;;;;;;;;;;10384776;28;20107;-70
2022/04/21 00:29:10;;;;;;;13.27;5.67;;;;;;;;;;10399640;28;20072;-71
2022/04/21 00:34:18;;;;;;;11.67;5.03;;;;;;;;;;10396984;28;20310;-71
2022/04/21 00:39:21;;;;;;;10.75;4.95;;;;;;;;;;10405907;28;20100;-71
2022/04/21 00:44:26;;;;;;;10.45;4.63;;;;;;;;;;10385230;28;20045;-70
2022/04/21 00:49:31;;;;;;;13.13;5.32;;;;;;;;;;10405986;28;20057;-70
2022/04/21 00:54:35;;;;;;;9.77;3.92;;;;;;;;;;10404592;28;20502;-70
2022/04/21 00:59:41;;;;;;;12.20;4.73;;;;;;;;;;10405752;28;20087;-69
2022/04/21 01:04:45;;;;;;;10.10;4.57;;;;;;;;;;10389269;28;20045;-70
2022/04/21 01:09:49;;;;;;;12.63;5.03;;;;;;;;;;10402599;28;20099;-71
2022/04/21 01:14:54;;;;;;;12.45;5.38;;;;;;;;;;10408326;28;20038;-70
2022/04/21 01:19:58;;;;;;;11.93;5.20;;;;;;;;;;10390441;28;20375;-70
2022/04/21 01:25:03;;;;;;;15.23;5.43;;;;;;;;;;10406465;28;20063;-70
2022/04/21 01:30:07;;;;;;;14.32;5.47;;;;;;;;;;10407187;28;20025;-69
2022/04/21 01:35:12;;;;;;;13.37;5.47;;;;;;;;;;10388134;28;20096;-70
2022/04/21 01:45:37;;;;;;;12.73;4.85;;;;;;;;;;10413037;28;20662;-70
2022/04/21 01:50:40;;;;;;;10.95;4.85;;;;;;;;;;10458205;22;20049;-72
2022/04/21 01:55:46;;;;;;;10.03;4.47;;;;;;;;;;10431891;28;20079;-72
2022/04/21 02:00:49;;;;;;;9.87;4.90;;;;;;;;;;10422577;28;20159;-72
2022/04/21 02:05:51;;;;;;;11.93;5.37;;;;;;;;;;10448933;28;20428;-72
2022/04/21 02:10:56;;;;;;;11.37;4.40;;;;;;;;;;10430095;28;20128;-72
2022/04/21 02:15:58;;;;;;;10.43;4.18;;;;;;;;;;10444269;28;20438;-72
2022/04/21 02:21:02;;;;;;;;;;;;;;;;;;10447826;28;20044;-72
2022/04/21 02:26:06;;;;;;;11.30;5.27;;;;;;;;;;10427139;28;20000;-72
2022/04/21 02:31:09;;;;;;;15.23;5.35;;;;;;;;;;10424022;28;20469;-72
2022/04/21 02:36:12;;;;;;;13.10;5.47;;;;;;;;;;10446131;28;20051;-74
2022/04/21 02:41:16;;;;;;;12.63;5.43;;;;;;;;;;10441187;28;20048;-72
2022/04/21 02:46:19;;;;;;;15.15;5.53;;;;;;;;;;10444995;28;20100;-72
2022/04/21 02:51:23;;;;;;;14.57;5.40;;;;;;;;;;10439923;28;20045;-71
2022/04/21 03:01:48;;;;;;;12.57;4.53;;;;;;;;;;10437410;28;20025;-72
2022/04/21 03:06:51;;;;;;;11.10;4.27;;;;;;;;;;10442409;28;20037;-73
2022/04/21 03:11:55;;;;;;;11.10;4.93;;;;;;;;;;10442964;28;20029;-72
2022/04/21 03:16:58;;;;;;;11.82;4.85;;;;;;;;;;10424480;28;20064;-72
2022/04/21 03:27:23;;;;;;;9.63;3.97;;;;;;;;;;10432486;28;20055;-72
2022/04/21 03:32:26;;;;;;;7.20;3.47;;;;;;;;;;10436164;28;20480;-72
2022/04/21 03:37:29;;;;;;;13.73;4.95;;;;;;;;;;10440036;28;20505;-71
2022/04/21 03:42:33;;;;;;;8.20;4.23;;;;;;;;;;10441530;28;20524;-73
2022/04/21 03:47:36;;;;;;;13.30;4.82;;;;;;;;;;10440973;28;20114;-72
2022/04/21 03:52:39;;;;;;;10.53;4.73;;;;;;;;;;10442813;28;20056;-72
2022/04/21 03:57:43;;;;;;;16.73;5.30;;;;;;;;;;10442508;28;20032;-72
2022/04/21 04:02:46;;;;;;;12.18;5.22;;;;;;;;;;10440226;28;20056;-73
2022/04/21 04:13:16;;;;;;;15.50;6.32;;;;;;;;;;10446831;28;20037;-71
2022/04/21 04:18:20;;;;;;;16.70;5.93;;;;;;;;;;10426642;28;20041;-73
2022/04/21 04:23:23;;;;;;;13.37;5.23;;;;;;;;;;10442382;28;20192;-72
2022/04/21 04:28:27;;;;;;;11.75;5.32;;;;;;;;;;10422341;28;20315;-72
2022/04/21 04:33:29;;;;;;;8.80;4.25;;;;;;;;;;10420454;28;20409;-73
2022/04/21 04:38:32;;;;;;;12.48;5.43;;;;;;;;;;10439384;28;20052;-72
2022/04/21 04:43:36;;;;;;;11.63;5.63;;;;;;;;;;10424146;28;20033;-72
2022/04/21 04:48:39;;;;;;;14.40;6.03;;;;;;;;;;10438464;28;20354;-72
2022/04/21 04:53:42;;;;;;;15.50;6.20;;;;;;;;;;10443090;28;20029;-72
2022/04/21 04:58:46;;;;;;;11.18;4.85;;;;;;;;;;10437619;28;20065;-72
2022/04/21 05:03:49;;;;;;;;;;;;;;;;;;10423871;28;20345;-72
2022/04/21 05:08:51;;;;;;;9.70;4.93;;;;;;;;;;10436935;28;19936;-72
2022/04/21 05:13:56;;;;;;;13.82;5.60;;;;;;;;;;10441792;28;20482;-72
2022/04/21 05:18:59;;;;;;;13.20;6.30;;;;;;;;;;10445609;28;20106;-72
2022/04/21 05:24:02;;;;;;;11.75;5.07;;;;;;;;;;10446715;28;20040;-73
2022/04/21 05:34:25;;;;;;;12.13;5.63;;;;;;;;;;10430023;28;20041;-73
2022/04/21 05:39:29;;;;;;;18.13;6.27;;;;;;;;;;10445961;28;20500;-72
2022/04/21 05:44:35;;;;;;;10.67;5.63;;;;;;;;;;10447996;28;20131;-73
2022/04/21 05:49:38;;;;;;;12.75;5.63;;;;;;;;;;10444997;28;20326;-74
2022/04/21 05:54:41;;;;;;;14.00;5.88;;;;;;;;;;10428289;28;20170;-73
2022/04/21 05:59:45;;;;;;;12.33;5.47;;;;;;;;;;10441947;28;20033;-74
2022/04/21 06:04:49;;;;;;;12.98;6.00;;;;;;;;;;10446080;28;20041;-73
2022/04/21 06:09:52;;;;;;;14.55;6.28;;;;;;;;;;10443439;28;20060;-73
2022/04/21 06:14:56;;;;;;;;;;;;;;;;;;10429923;28;20075;-73
2022/04/21 06:20:00;;;;;;;12.65;6.03;;;;;;;;;;10445265;28;20433;-73
2022/04/21 06:25:03;;;;;;;;;;;;;;;;;;10447921;28;20037;-72
2022/04/21 06:30:06;;;;;;;13.93;6.43;;;;;;;;;;10447422;28;19920;-72
2022/04/21 06:35:11;;;;;;;13.00;6.43;;;;;;;;;;10445617;28;20036;-72
2022/04/21 06:40:14;;;;;;;14.48;6.60;;;;;;;;;;10441939;28;20123;-72
2022/04/21 06:50:40;;;;;;;12.40;5.97;;;;;;;;;;10422342;28;20033;-72
2022/04/21 06:55:43;;;;;;;17.77;6.20;;;;;;;;;;10425845;28;20195;-72
2022/04/21 07:00:47;;;;;;;12.50;5.90;;;;;;;;;;10443740;28;20116;-72
2022/04/21 07:05:52;;;;;;;13.70;6.60;;;;;;;;;;10441743;28;20049;-73
2022/04/21 07:10:56;;;;;;;18.73;8.45;;;;;;;;;;10422014;28;20288;-73
2022/04/21 07:15:59;;;;;;;12.48;5.72;;;;;;;;;;10443470;28;20508;-72
2022/04/21 07:21:04;;;;;;;15.17;7.33;;;;;;;;;;10442553;28;20497;-72
2022/04/21 07:26:07;;;;;;;12.48;6.68;;;;;;;;;;10427132;28;20119;-73
2022/04/21 07:31:12;;;;;;;14.32;7.47;;;;;;;;;;10435512;28;20071;-73
2022/04/21 07:36:15;;;;;;;;;;;;;;;;;;10427008;28;20426;-73
2022/04/21 07:41:19;;;;;;;13.50;7.35;;;;;;;;;;10423857;28;19925;-74
2022/04/21 07:46:22;;;;;;;13.07;7.80;;;;;;;;;;10443211;28;20132;-71
2022/04/21 07:51:25;;;;;;;11.30;7.30;;;;;;;;;;10490157;22;20167;-71
2022/04/21 07:56:29;;;;;;;13.05;8.40;;;;;;;;;;10450901;28;20471;-70
2022/04/21 08:01:32;;;;;;;17.15;8.07;;;;;;;;;;10465521;28;20028;-69
2022/04/21 08:06:35;;;;;;;11.05;8.20;;;;;;;;;;10447057;28;20524;-70
2022/04/21 08:11:39;;;;;;;12.25;7.95;;;;;;;;;;10466155;28;20537;-70
2022/04/21 08:16:42;;;;;;;11.10;7.80;;;;;;;;;;10466525;28;20512;-70
2022/04/21 08:21:45;;;;;;;12.55;8.55;;;;;;;;;;10448267;28;20142;-70
2022/04/21 08:37:34;;;;;;;12.48;7.97;;;;;;;;;;10445999;28;20331;-70
2022/04/21 08:42:39;;;;;;;9.15;7.68;;;;;;;;;;10461558;28;20039;-70
2022/04/21 08:47:46;;;;;;;11.40;7.97;;;;;;;;;;10466672;28;20044;-71
2022/04/21 08:52:48;;;;;;;11.25;8.00;;;;;;;;;;10474079;28;20116;-71
2022/04/21 08:57:53;;;;;;;8.57;7.68;;;;;;;;;;10472098;28;20099;-70
2022/04/21 09:02:56;;;;;;;12.65;8.20;;;;;;;;;;10481577;28;20083;-70
2022/04/21 09:07:59;;;;;;;9.65;8.05;;;;;;;;;;10469583;28;20056;-70
2022/04/21 09:13:30;;;;;;;29.77;10.10;;;;;;;;;;10472617;28;20044;-71
2022/04/21 09:18:37;;;;;;;9.85;7.63;;;;;;;;;;10471634;28;20232;-71
2022/04/21 09:23:40;;;;;;;35.17;10.25;;;;;;;;;;10470777;28;20481;-70
2022/04/21 09:28:52;;;;;;;15.25;8.82;;;;;;;;;;10474343;28;20051;-71
2022/04/21 09:33:55;;;;;;;11.70;8.15;;;;;;;;;;10474281;28;20140;-71
2022/04/21 09:39:01;;;;;;;12.13;8.63;;;;;;;;;;10472191;28;20404;-70
2022/04/21 09:46:07;;;;;;;14.98;9.00;;;;;;;;;;10460154;28;20708;-70
2022/04/21 09:49:42;;;;;;;30.25;10.07;;;;;;;;;;10471240;28;20413;-72
2022/04/21 09:54:46;;;;;;;9.90;7.97;;;;;;;;;;10453070;28;20059;-71
2022/04/21 09:59:51;;;;;;;10.38;8.27;;;;;;;;;;10460410;28;20122;-70
2022/04/21 10:04:55;;;;;;;14.23;7.85;;;;;;;;;;10470260;28;20116;-70
2022/04/21 10:09:59;;;;;;;35.92;10.30;;;;;;;;;;10460001;28;20032;-71
2022/04/21 10:15:04;;;;;;;68.28;13.32;;;;;;;;;;10471716;28;20036;-71
2022/04/21 10:20:08;;;;;;;14.50;8.05;;;;;;;;;;10469673;28;20040;-71
2022/04/21 10:25:11;;;;;;;11.73;7.45;;;;;;;;;;10450918;28;20045;-70
2022/04/21 10:30:16;;;;;;;9.50;7.13;;;;;;;;;;10474046;28;20417;-71
2022/04/21 10:35:20;;;;;;;10.63;7.50;;;;;;;;;;10472676;28;20486;-71
2022/04/21 10:40:23;;;;;;;12.23;7.60;;;;;;;;;;10473409;28;20048;-71
2022/04/21 10:45:30;;;;;;;11.38;6.40;;;;;;;;;;10468778;28;20451;-71
2022/04/21 10:50:35;;;;;;;10.75;7.40;;;;;;;;;;10471039;28;20032;-71
2022/04/21 11:01:10;;;;;;;9.25;6.07;;;;;;;;;;10463800;28;20056;-72
2022/04/21 11:06:15;;;;;;;8.50;6.65;;;;;;;;;;10449389;28;20455;-72
2022/04/21 11:11:38;;;;;;;9.18;6.85;;;;;;;;;;10457505;28;20045;-71
2022/04/21 11:16:48;;;;;;;8.75;6.72;;;;;;;;;;10450492;28;20068;-71
2022/04/21 11:21:52;;;;;;;9.52;7.45;;;;;;;;;;10467697;28;20025;-70
2022/04/21 11:26:56;;;;;;;9.32;6.82;;;;;;;;;;10468482;28;20044;-71
2022/04/21 11:32:02;;;;;;;9.45;7.10;;;;;;;;;;10469217;28;20024;-72
2022/04/21 11:37:06;;;;;;;10.13;7.10;;;;;;;;;;10448695;28;20060;-71
2022/04/21 11:42:09;;;;;;;9.82;7.10;;;;;;;;;;10469770;28;20041;-71
2022/04/21 11:47:19;;;;;;;10.63;6.25;;;;;;;;;;10465898;28;20033;-72
2022/04/21 11:52:26;;;;;;;9.45;6.55;;;;;;;;;;10466320;28;20127;-70
2022/04/21 11:57:44;;;;;;;10.93;6.85;;;;;;;;;;10454392;28;20130;-72
2022/04/21 12:08:17;;;;;;;;;;;;;;;;;;10454648;28;20046;-71
2022/04/21 12:13:19;;;;;;;10.80;7.03;;;;;;;;;;10450575;28;20015;-71
2022/04/21 12:18:24;;;;;;;9.32;6.28;;;;;;;;;;10466338;28;20072;-72
2022/04/21 12:23:27;;;;;;;14.75;7.20;;;;;;;;;;10454881;28;20106;-71
2022/04/21 12:28:30;;;;;;;7.10;6.18;;;;;;;;;;10448695;28;20064;-71
2022/04/21 12:33:43;;;;;;;8.52;6.22;;;;;;;;;;10465601;28;20104;-71
2022/04/21 12:38:58;;;;;;;10.00;6.50;;;;;;;;;;10463618;28;20668;-71
2022/04/21 12:44:23;;;;;;;8.32;5.90;;;;;;;;;;10455355;28;20049;-70
2022/04/21 12:49:49;;;;;;;10.30;6.47;;;;;;;;;;10464348;28;20037;-70
2022/04/21 12:54:54;;;;;;;8.43;6.50;;;;;;;;;;10464301;28;20024;-73
2022/04/21 12:59:57;;;;;;;10.65;6.45;;;;;;;;;;10465716;28;20382;-71
2022/04/21 13:05:00;;;;;;;11.70;7.55;;;;;;;;;;10461923;28;20025;-71
2022/04/21 13:10:06;;;;;;;7.88;6.18;;;;;;;;;;10457039;28;20054;-71
2022/04/21 13:15:10;;;;;;;8.77;6.45;;;;;;;;;;10466725;28;20087;-71
2022/04/21 13:21:52;;;;;;;9.52;6.65;;;;;;;;;;10465800;28;20064;-71
2022/04/21 13:25:39;;;;;;;10.57;5.82;;;;;;;;;;10448030;28;20103;-71
2022/04/21 13:30:42;;;;;;;11.65;5.72;;;;;;;;;;10467560;28;20037;-71
2022/04/21 13:35:45;;;;;;;8.40;5.63;;;;;;;;;;10447446;28;20067;-71
2022/04/21 13:40:49;;;;;;;10.68;5.70;;;;;;;;;;10451212;28;20460;-70
2022/04/21 13:45:52;;;;;;;7.97;5.60;;;;;;;;;;10472183;28;20461;-71
2022/04/21 13:50:56;;;;;;;7.10;5.43;;;;;;;;;;10384243;22;20041;-72
2022/04/21 13:56:06;;;;;;;6.95;4.90;;;;;;;;;;10346765;28;20048;-72
2022/04/21 14:01:09;;;;;;;34.97;10.60;;;;;;;;;;10328626;28;20537;-73
2022/04/21 14:06:12;;;;;;;8.93;5.35;;;;;;;;;;10345293;28;20069;-73
2022/04/21 14:11:17;;;;;;;9.43;5.93;;;;;;;;;;10345290;28;20038;-72
2022/04/21 14:16:20;;;;;;;20.20;6.65;;;;;;;;;;10320451;28;20494;-73
2022/04/21 14:21:35;;;;;;;10.38;6.10;;;;;;;;;;10341323;28;20524;-73
2022/04/21 14:26:39;;;;;;;9.07;6.20;;;;;;;;;;10325815;28;20122;-72
2022/04/21 14:31:45;;;;;;;9.40;6.10;;;;;;;;;;10340063;28;20050;-73
2022/04/21 14:36:48;;;;;;;9.27;6.18;;;;;;;;;;10340890;28;20134;-72
2022/04/21 14:47:14;;;;;;;9.30;6.30;;;;;;;;;;10339879;28;20037;-73
2022/04/21 14:52:27;;;;;;;;;;;;;;;;;;10319112;28;20705;-73
2022/04/21 14:57:32;;;;;;;10.95;5.90;;;;;;;;;;10327663;28;19921;-71
2022/04/21 15:02:35;;;;;;;17.13;6.60;;;;;;;;;;10335907;28;20061;-73
2022/04/21 15:07:38;;;;;;;;;;;;;;;;;;10326084;28;20084;-73
2022/04/21 15:12:44;;;;;;;19.17;6.40;;;;;;;;;;10336619;28;19922;-72
2022/04/21 15:17:47;;;;;;;10.00;5.63;;;;;;;;;;10323720;28;20042;-73
2022/04/21 15:23:01;;;;;;;14.63;5.93;;;;;;;;;;10312777;28;20688;-74
2022/04/21 15:28:07;;;;;;;11.40;5.75;;;;;;;;;;10322072;28;20128;-73
2022/04/21 15:33:10;;;;;;;9.45;5.93;;;;;;;;;;10337737;28;20089;-73
2022/04/21 15:38:15;;;;;;;8.52;5.43;;;;;;;;;;10340265;28;20042;-72
2022/04/21 15:43:19;;;;;;;9.88;5.70;;;;;;;;;;10318371;28;20469;-72
2022/04/21 15:48:22;;;;;;;10.85;5.40;;;;;;;;;;10339096;28;20517;-73
2022/04/21 15:58:51;;;;;;;8.50;5.40;;;;;;;;;;10314133;28;20073;-72
2022/04/21 16:03:55;;;;;;;8.48;5.35;;;;;;;;;;10337620;28;20502;-73
2022/04/21 16:08:58;;;;;;;7.72;4.85;;;;;;;;;;10318908;28;20034;-72
2022/04/21 16:14:03;;;;;;;9.85;5.30;;;;;;;;;;10338161;28;20034;-71
2022/04/21 16:19:05;;;;;;;7.75;4.40;;;;;;;;;;10335368;28;20046;-72
2022/04/21 16:24:08;;;;;;;9.40;4.45;;;;;;;;;;10323215;28;20061;-72
2022/04/21 16:29:13;;;;;;;8.07;4.57;;;;;;;;;;10335274;28;20061;-73
2022/04/21 16:34:16;;;;;;;9.57;4.40;;;;;;;;;;10318697;28;20049;-73
2022/04/21 16:39:22;;;;;;;9.82;4.57;;;;;;;;;;10339044;28;20041;-73
2022/04/21 16:44:26;;;;;;;7.43;4.23;;;;;;;;;;10316683;28;20038;-72
2022/04/21 16:49:29;;;;;;;6.82;4.10;;;;;;;;;;10318903;28;20367;-73
2022/04/21 16:54:32;;;;;;;9.45;5.35;;;;;;;;;;10339739;28;20042;-74
2022/04/21 16:59:36;;;;;;;7.87;4.37;;;;;;;;;;10314266;28;20195;-70
2022/04/21 17:04:40;;;;;;;9.35;4.72;;;;;;;;;;10338708;28;20030;-72
2022/04/21 17:09:43;;;;;;;10.00;4.67;;;;;;;;;;10311906;28;20052;-72
2022/04/21 17:14:47;;;;;;;8.17;4.50;;;;;;;;;;10343340;28;20417;-72
2022/04/21 17:19:50;;;;;;;9.70;4.18;;;;;;;;;;10344148;28;20092;-72
2022/04/21 17:24:53;;;;;;;9.37;4.40;;;;;;;;;;10348976;28;20046;-71
2022/04/21 17:29:57;;;;;;;8.07;4.40;;;;;;;;;;10326802;28;20086;-71
2022/04/21 17:35:00;;;;;;;8.35;4.32;;;;;;;;;;10344387;28;20061;-73
2022/04/21 17:40:04;;;;;;;8.18;4.32;;;;;;;;;;10342326;28;20459;-72
2022/04/21 17:45:09;;;;;;;8.85;4.05;;;;;;;;;;10345700;28;20097;-72
2022/04/21 17:50:13;;;;;;;7.53;3.72;;;;;;;;;;10341873;28;20368;-71
2022/04/21 17:55:16;;;;;;;10.02;3.78;;;;;;;;;;10330214;28;20050;-70
2022/04/21 18:00:20;;;;;;;8.88;3.78;;;;;;;;;;10328602;28;20042;-71
2022/04/21 18:05:25;;;;;;;7.30;3.95;;;;;;;;;;10346681;28;20509;-73
2022/04/21 18:10:28;;;;;;;9.63;4.55;;;;;;;;;;10341222;28;20046;-72
2022/04/21 18:15:31;;;;;;;10.95;4.63;;;;;;;;;;10326163;28;20503;-75
2022/04/21 18:20:37;;;;;;;8.87;4.47;;;;;;;;;;10323110;28;20038;-71
2022/04/21 18:25:41;;;;;;;8.90;4.53;;;;;;;;;;10343808;28;20038;-72
2022/04/21 18:30:44;;;;;;;9.23;4.87;;;;;;;;;;10320591;28;20174;-73
2022/04/21 18:35:49;;;;;;;9.17;4.50;;;;;;;;;;10349679;28;20652;-72
2022/04/21 18:40:52;;;;;;;7.55;4.13;;;;;;;;;;10337950;28;20038;-72
2022/04/21 18:45:55;;;;;;;10.53;4.70;;;;;;;;;;10324892;28;20134;-72
2022/04/21 18:51:00;;;;;;;11.95;4.57;;;;;;;;;;10320428;28;20062;-71
2022/04/21 18:56:05;;;;;;;10.95;4.18;;;;;;;;;;10344371;28;20030;-72
2022/04/21 19:01:10;;;;;;;9.70;5.07;;;;;;;;;;10321818;28;20080;-72
2022/04/21 19:06:14;;;;;;;12.38;4.63;;;;;;;;;;10325674;28;20805;-71
2022/04/21 19:11:18;;;;;;;10.20;4.80;;;;;;;;;;10325520;28;20372;-72
2022/04/21 19:16:21;;;;;;;9.97;5.10;;;;;;;;;;10324929;28;20130;-72
2022/04/21 19:27:04;;;;;;;16.90;7.22;;;;;;;;;;10336928;28;19921;-71
2022/04/21 19:32:08;;;;;;;13.10;4.72;;;;;;;;;;10315432;28;20041;-70
2022/04/21 19:37:10;;;;;;;;;;;;;;;;;;10324719;28;20058;-71
2022/04/21 19:42:15;;;;;;;11.32;4.28;;;;;;;;;;10342737;28;19925;-72
2022/04/21 19:47:19;;;;;;;10.82;4.93;;;;;;;;;;10329670;28;20458;-72
2022/04/21 19:52:22;;;;;;;13.05;5.75;;;;;;;;;;10341067;28;20034;-71
2022/04/21 19:57:26;;;;;;;11.27;5.60;;;;;;;;;;10343812;23;20047;-70
2022/04/21 20:02:50;;;;;;;12.43;5.25;;;;;;;;;;10318967;28;20042;-70
2022/04/21 20:13:15;;;;;;;13.65;5.57;;;;;;;;;;10305345;28;20035;-70
2022/04/21 20:18:22;;;;;;;10.38;5.45;;;;;;;;;;10298067;28;20046;-71
2022/04/21 20:23:26;;;;;;;12.77;5.93;;;;;;;;;;10300547;28;20065;-71
2022/04/21 20:28:31;;;;;;;10.45;5.65;;;;;;;;;;10296705;28;20472;-71
2022/04/21 20:33:34;;;;;;;11.27;5.45;;;;;;;;;;10302387;28;20042;-70
2022/04/21 20:38:39;;;;;;;10.98;5.07;;;;;;;;;;10299843;28;20101;-69
2022/04/21 20:43:48;;;;;;;13.10;5.60;;;;;;;;;;10301563;28;20042;-70
2022/04/21 20:48:50;;;;;;;;;;;;;;;;;;10306911;28;20069;-70
2022/04/21 20:53:53;;;;;;;10.43;5.63;;;;;;;;;;10307939;28;19926;-70
2022/04/21 20:58:57;;;;;;;11.18;4.90;;;;;;;;;;10308799;28;20039;-70
2022/04/21 21:04:01;;;;;;;10.80;5.63;;;;;;;;;;10324821;28;20512;-69
2022/04/21 21:09:04;;;;;;;10.70;5.50;;;;;;;;;;10307580;28;20053;-69
2022/04/21 21:14:08;;;;;;;12.10;6.07;;;;;;;;;;10312504;28;20169;-69
2022/04/21 21:19:11;;;;;;;10.05;4.95;;;;;;;;;;10304810;28;20122;-70
2022/04/21 21:24:14;;;;;;;10.00;5.20;;;;;;;;;;10312802;28;20042;-69
2022/04/21 21:29:19;;;;;;;10.88;5.75;;;;;;;;;;10321658;28;20499;-69
2022/04/21 21:34:22;;;;;;;9.65;5.18;;;;;;;;;;10321781;28;20051;-71
2022/04/21 21:39:26;;;;;;;9.80;4.93;;;;;;;;;;10321843;28;20049;-70
2022/04/21 21:44:30;;;;;;;8.20;4.63;;;;;;;;;;10303835;28;20043;-70
2022/04/21 21:54:54;;;;;;;9.75;5.15;;;;;;;;;;10303838;28;20012;-70
2022/04/21 21:59:57;;;;;;;;;;;;;;;;;;10308490;28;20038;-69
2022/04/21 22:05:02;;;;;;;12.52;5.90;;;;;;;;;;10307347;28;20326;-69
2022/04/21 22:10:06;;;;;;;14.15;5.40;;;;;;;;;;10319357;28;20073;-69
2022/04/21 22:15:09;;;;;;;11.50;5.95;;;;;;;;;;10321385;28;20081;-71
2022/04/21 22:20:14;;;;;;;10.30;5.43;;;;;;;;;;10317632;28;20404;-68
2022/04/21 22:25:16;;;;;;;10.65;5.25;;;;;;;;;;10304802;28;20042;-69
2022/04/21 22:30:20;;;;;;;10.10;5.40;;;;;;;;;;10304204;28;20089;-69
2022/04/21 22:35:24;;;;;;;10.27;5.50;;;;;;;;;;10306682;28;20046;-69
2022/04/21 22:40:30;;;;;;;13.52;4.93;;;;;;;;;;10303223;28;20326;-69
2022/04/21 22:45:33;;;;;;;11.32;5.95;;;;;;;;;;10301697;28;20065;-70
2022/04/21 22:50:39;;;;;;;11.88;5.35;;;;;;;;;;10303699;28;20102;-70
2022/04/21 22:55:42;;;;;;;10.45;4.93;;;;;;;;;;10303792;28;20038;-69
2022/04/21 23:00:46;;;;;;;9.80;5.05;;;;;;;;;;10305831;28;20049;-69
2022/04/21 23:05:51;;;;;;;10.15;5.15;;;;;;;;;;10303311;28;20133;-69
2022/04/21 23:16:15;;;;;;;10.80;5.82;;;;;;;;;;10301198;28;19953;-69
2022/04/21 23:21:20;;;;;;;11.35;5.25;;;;;;;;;;10303133;28;20046;-69
2022/04/21 23:26:23;;;;;;;11.73;5.97;;;;;;;;;;10304299;28;20034;-70
2022/04/21 23:31:26;;;;;;;11.10;6.03;;;;;;;;;;10302405;28;20101;-70
2022/04/21 23:36:30;;;;;;;10.60;5.85;;;;;;;;;;10315922;28;20046;-69
2022/04/21 23:41:35;;;;;;;10.63;5.82;;;;;;;;;;10303020;28;20039;-69
2022/04/21 23:46:39;;;;;;;13.82;5.97;;;;;;;;;;10300516;28;20069;-70
2022/04/21 23:51:42;;;;;;;;;;;;;;;;;;10303803;28;20077;-70
2022/04/21 23:56:46;;;;;;;11.43;5.35;;;;;;;;;;10302671;28;19966;-70
